Time;durP1;ratioP1;P1;durP2;ratioP2;P2;SDS_P1;SDS_P2;PMS_P1;PMS_P2;Temp;Humidity;BMP_temperature;BMP_pressure;BME280_temperature;BME280_humidity;BME280_pressure;Samples;Min_cycle;Max_cycle;Signal;HPM_P1;HPM_P2
2021/06/04 00:00:45;;;;;;;11.85;5.70;;;;;;;13.72;nan;102421.88;5032458;28;20029;-74
2021/06/04 00:03:18;;;;;;;8.35;5.88;;;;;;;13.73;nan;102421.63;5030988;28;20057;-73
2021/06/04 00:05:47;;;;;;;7.45;5.82;;;;;;;13.69;nan;102419.63;5015403;28;20056;-73
2021/06/04 00:08:14;;;;;;;10.05;6.10;;;;;;;13.69;nan;102422.34;5022564;28;20013;-73
2021/06/04 00:10:48;;;;;;;7.97;5.88;;;;;;;13.66;nan;102426.31;5031916;28;20040;-73
2021/06/04 00:13:24;;;;;;;8.57;6.22;;;;;;;13.70;nan;102429.34;5013449;28;20026;-73
2021/06/04 00:15:53;;;;;;;7.10;6.40;;;;;;;13.73;nan;102424.34;5031750;28;20094;-74
2021/06/04 00:18:19;;;;;;;7.70;5.70;;;;;;;13.70;nan;102413.19;5030936;28;20131;-74
2021/06/04 00:20:44;;;;;;;8.20;6.10;;;;;;;13.66;nan;102417.41;5028213;28;20076;-73
2021/06/04 00:23:10;;;;;;;7.13;6.03;;;;;;;13.63;nan;102412.44;5029471;28;20037;-73
2021/06/04 00:25:37;;;;;;;9.95;6.43;;;;;;;13.57;nan;102409.63;5028384;28;20479;-73
2021/06/04 00:28:03;;;;;;;8.80;6.80;;;;;;;13.55;nan;102413.59;5020350;28;20021;-73
2021/06/04 00:30:29;;;;;;;7.95;5.93;;;;;;;13.51;nan;102404.34;5028858;28;20116;-73
2021/06/04 00:32:55;;;;;;;10.70;7.35;;;;;;;13.41;nan;102415.63;5017371;28;20190;-73
2021/06/04 00:35:21;;;;;;;10.20;7.25;;;;;;;13.41;nan;102410.25;5017995;28;20458;-73
2021/06/04 00:37:47;;;;;;;9.43;6.22;;;;;;;13.44;nan;102404.41;5030234;28;20024;-74
2021/06/04 00:40:26;;;;;;;8.23;6.85;;;;;;;13.42;nan;102401.13;5028854;28;20044;-73
2021/06/04 00:42:52;;;;;;;8.38;6.90;;;;;;;13.44;nan;102390.94;5032902;28;20061;-74
2021/06/04 00:45:24;;;;;;;9.68;7.05;;;;;;;13.40;nan;102403.22;5029368;28;20056;-73
2021/06/04 00:47:50;;;;;;;7.75;6.20;;;;;;;13.43;nan;102400.06;5029249;28;20013;-73
2021/06/04 00:50:23;;;;;;;11.65;6.68;;;;;;;13.44;nan;102401.72;5029413;28;20033;-73
2021/06/04 00:52:49;;;;;;;10.77;6.22;;;;;;;13.46;nan;102393.41;5018790;28;20503;-73
2021/06/04 00:55:19;;;;;;;8.80;6.45;;;;;;;13.46;nan;102396.91;5029217;28;20067;-73
2021/06/04 00:57:46;;;;;;;12.50;6.78;;;;;;;13.41;nan;102394.09;5012833;28;20056;-73
2021/06/04 01:00:24;;;;;;;8.32;6.40;;;;;;;13.43;nan;102389.28;5028797;28;20517;-74
2021/06/04 01:02:51;;;;;;;8.38;5.97;;;;;;;13.47;nan;102384.31;5015890;28;20037;-73
2021/06/04 01:05:17;;;;;;;10.82;6.40;;;;;;;13.44;nan;102382.03;5019188;28;20036;-73
2021/06/04 01:07:48;;;;;;;8.73;6.97;;;;;;;13.41;nan;102383.31;5021098;28;20112;-73
2021/06/04 01:10:34;;;;;;;8.48;6.68;;;;;;;13.40;nan;102378.97;5028693;28;20120;-73
2021/06/04 01:13:29;;;;;;;8.93;6.45;;;;;;;13.27;nan;102381.84;5000577;28;20538;-73
2021/06/04 01:16:29;;;;;;;10.30;6.05;;;;;;;13.37;nan;102384.00;5012698;28;20049;-73
2021/06/04 01:19:31;;;;;;;7.50;5.53;;;;;;;13.39;nan;102380.03;5028271;28;20037;-73
2021/06/04 01:22:01;;;;;;;8.75;5.68;;;;;;;13.24;nan;102390.38;5028692;28;20060;-73
2021/06/04 01:25:02;;;;;;;7.45;5.28;;;;;;;13.13;nan;102397.31;5020672;28;20052;-73
2021/06/04 01:27:47;;;;;;;8.43;6.25;;;;;;;13.08;nan;102401.72;5017589;28;20025;-73
2021/06/04 01:30:23;;;;;;;7.30;6.18;;;;;;;13.22;nan;102392.47;5010862;28;20032;-73
2021/06/04 01:32:51;;;;;;;10.43;6.35;;;;;;;13.34;nan;102393.38;5034783;28;20033;-73
2021/06/04 01:35:23;;;;;;;8.73;6.63;;;;;;;13.41;nan;102399.47;5032254;28;20878;-73
2021/06/04 01:37:50;;;;;;;9.02;6.38;;;;;;;13.45;nan;102406.03;5021613;28;20024;-73
2021/06/04 01:40:32;;;;;;;8.45;5.90;;;;;;;13.41;nan;102399.47;5033232;28;20709;-73
2021/06/04 01:43:02;;;;;;;10.63;6.35;;;;;;;13.46;nan;102407.69;5031165;28;20083;-73
2021/06/04 01:45:33;;;;;;;6.93;6.03;;;;;;;13.43;nan;102408.16;5031782;28;20021;-73
2021/06/04 01:48:10;;;;;;;7.70;5.88;;;;;;;13.43;nan;102418.91;5018197;28;20033;-73
2021/06/04 01:50:46;;;;;;;9.35;6.63;;;;;;;13.44;nan;102407.09;5018203;28;20033;-73
2021/06/04 01:53:20;;;;;;;9.38;6.65;;;;;;;13.40;nan;102403.22;5023470;28;20410;-74
2021/06/04 01:55:56;;;;;;;9.63;6.95;;;;;;;13.44;nan;102408.97;5033116;28;20052;-73
2021/06/04 01:58:35;;;;;;;8.77;6.50;;;;;;;13.44;nan;102415.16;5030291;28;20234;-73
2021/06/04 02:01:31;;;;;;;15.13;6.60;;;;;;;13.35;nan;102408.47;5022222;28;20120;-73
2021/06/04 02:03:58;;;;;;;;;;;;;;;13.26;nan;102401.72;5029698;28;20049;-73
2021/06/04 02:06:24;;;;;;;9.57;6.53;;;;;;;13.34;nan;102406.81;5031469;28;19920;-73
2021/06/04 02:08:54;;;;;;;8.20;6.82;;;;;;;13.31;nan;102401.91;5029530;28;20095;-73
2021/06/04 02:11:25;;;;;;;8.75;6.72;;;;;;;13.32;nan;102406.22;5033487;28;20060;-73
2021/06/04 02:13:51;;;;;;;11.35;7.40;;;;;;;13.32;nan;102405.41;5033272;28;20392;-73
2021/06/04 02:16:16;;;;;;;7.60;6.55;;;;;;;13.33;nan;102401.66;5034903;28;20431;-73
2021/06/04 02:19:03;;;;;;;8.50;6.60;;;;;;;13.29;nan;102407.50;5032832;28;20063;-73
2021/06/04 02:21:37;;;;;;;9.50;6.65;;;;;;;13.29;nan;102401.31;5032615;28;20481;-73
2021/06/04 02:24:21;;;;;;;8.25;7.35;;;;;;;13.28;nan;102394.25;5030619;28;20041;-73
2021/06/04 02:27:00;;;;;;;10.43;7.45;;;;;;;13.33;nan;102398.97;5031361;28;20022;-73
2021/06/04 02:29:55;;;;;;;9.90;6.50;;;;;;;13.33;nan;102396.28;5030397;28;20029;-73
2021/06/04 02:32:36;;;;;;;10.20;7.10;;;;;;;13.37;nan;102395.59;5030504;28;20040;-73
2021/06/04 02:35:12;;;;;;;10.30;6.95;;;;;;;13.37;nan;102394.78;5032272;28;20315;-73
2021/06/04 02:37:44;;;;;;;8.50;6.35;;;;;;;13.42;nan;102394.91;5030912;28;20030;-73
2021/06/04 02:40:21;;;;;;;8.70;6.55;;;;;;;13.06;nan;102384.97;5034545;28;20024;-74
2021/06/04 02:42:49;;;;;;;8.90;6.25;;;;;;;13.19;nan;102391.06;5034046;28;20033;-73
2021/06/04 02:45:20;;;;;;;8.40;7.05;;;;;;;13.26;nan;102393.66;5032365;28;20044;-73
2021/06/04 02:47:51;;;;;;;8.38;6.43;;;;;;;13.40;nan;102400.53;5029241;28;20515;-73
2021/06/04 02:50:26;;;;;;;8.80;5.88;;;;;;;13.39;nan;102398.88;5027388;28;20040;-73
2021/06/04 02:52:51;;;;;;;7.68;6.43;;;;;;;13.35;nan;102411.16;5014640;28;20028;-73
2021/06/04 02:55:28;;;;;;;7.40;6.60;;;;;;;13.16;nan;102404.94;5033164;28;20033;-73
2021/06/04 02:57:54;;;;;;;9.18;6.68;;;;;;;13.32;nan;102405.41;5032484;28;20033;-73
2021/06/04 03:00:35;;;;;;;8.02;7.15;;;;;;;13.46;nan;102399.59;5031514;28;20026;-73
2021/06/04 03:03:00;;;;;;;9.15;7.05;;;;;;;13.53;nan;102403.06;5016344;28;20029;-73
2021/06/04 03:05:31;;;;;;;9.00;7.65;;;;;;;13.60;nan;102405.66;5021611;28;20031;-73
2021/06/04 03:07:58;;;;;;;10.80;7.63;;;;;;;13.59;nan;102402.13;5031948;28;20585;-73
2021/06/04 03:10:34;;;;;;;7.85;6.82;;;;;;;13.57;nan;102406.94;5029486;28;20053;-73
2021/06/04 03:13:00;;;;;;;8.43;6.97;;;;;;;13.63;nan;102404.38;5031105;28;20498;-73
2021/06/04 03:15:39;;;;;;;7.30;6.47;;;;;;;13.50;nan;102395.44;5021301;28;20029;-73
2021/06/04 03:18:09;;;;;;;8.38;6.40;;;;;;;13.60;nan;102400.25;5033797;28;20043;-73
2021/06/04 03:20:38;;;;;;;9.48;6.90;;;;;;;13.67;nan;102394.81;5034989;28;20033;-73
2021/06/04 03:23:07;;;;;;;11.52;6.55;;;;;;;13.72;nan;102400.31;5031483;28;20033;-73
2021/06/04 03:25:37;;;;;;;9.07;6.40;;;;;;;13.78;nan;102396.69;5031301;28;20033;-73
2021/06/04 03:28:05;;;;;;;11.52;6.45;;;;;;;13.84;nan;102393.94;5030720;28;20146;-73
2021/06/04 03:30:40;;;;;;;10.27;6.65;;;;;;;13.90;nan;102386.78;5029733;28;20059;-73
2021/06/04 03:33:08;;;;;;;8.23;6.57;;;;;;;13.94;nan;102398.75;5031847;28;20029;-75
2021/06/04 03:35:34;;;;;;;9.60;6.53;;;;;;;13.98;nan;102401.78;5029713;28;20575;-73
2021/06/04 03:38:00;;;;;;;12.20;7.32;;;;;;;14.03;nan;102397.38;5030512;28;20113;-73
2021/06/04 03:40:30;;;;;;;8.35;6.85;;;;;;;14.06;nan;102404.19;5031080;28;20068;-73
2021/06/04 03:42:58;;;;;;;8.27;7.25;;;;;;;14.14;nan;102407.34;5032007;28;20037;-73
2021/06/04 03:45:30;;;;;;;8.77;6.32;;;;;;;14.13;nan;102396.78;5029555;28;20040;-73
2021/06/04 03:47:57;;;;;;;8.02;6.35;;;;;;;14.26;nan;102401.16;5028880;28;20063;-73
2021/06/04 03:50:22;;;;;;;8.05;6.57;;;;;;;14.37;nan;102411.16;5018879;28;20186;-73
2021/06/04 03:52:48;;;;;;;9.95;6.07;;;;;;;14.41;nan;102410.44;5032722;28;20610;-73
2021/06/04 03:55:16;;;;;;;10.55;6.65;;;;;;;14.49;nan;102412.81;5030951;28;20053;-74
2021/06/04 03:57:42;;;;;;;11.00;6.32;;;;;;;14.59;nan;102412.25;5031394;28;20112;-73
2021/06/04 04:00:28;;;;;;;9.52;6.13;;;;;;;14.64;nan;102415.06;5028863;28;20052;-73
2021/06/04 04:02:55;;;;;;;8.68;6.13;;;;;;;14.76;nan;102417.75;5019175;28;20039;-73
2021/06/04 04:05:22;;;;;;;8.75;6.05;;;;;;;14.81;nan;102415.16;5031605;28;20024;-73
2021/06/04 04:07:48;;;;;;;10.52;5.93;;;;;;;14.87;nan;102408.00;5030211;28;20025;-73
2021/06/04 04:10:14;;;;;;;9.45;6.30;;;;;;;14.94;nan;102416.81;5029380;28;20590;-73
2021/06/04 04:12:40;;;;;;;6.70;5.70;;;;;;;14.97;nan;102414.44;5017027;28;20514;-73
2021/06/04 04:15:08;;;;;;;7.05;6.00;;;;;;;15.02;nan;102408.34;5029662;28;20112;-73
2021/06/04 04:17:35;;;;;;;11.30;6.30;;;;;;;15.02;nan;102408.34;5031642;28;20029;-73
2021/06/04 04:20:00;;;;;;;8.40;6.47;;;;;;;14.97;nan;102403.66;5018314;28;20167;-73
2021/06/04 04:22:27;;;;;;;9.05;6.25;;;;;;;15.10;nan;102408.00;5015020;28;20506;-73
2021/06/04 04:24:53;;;;;;;6.75;5.97;;;;;;;15.11;nan;102406.94;5031456;28;20026;-73
2021/06/04 04:27:19;;;;;;;6.93;5.60;;;;;;;15.15;nan;102397.28;5032354;28;20467;-73
2021/06/04 04:29:44;;;;;;;8.20;5.45;;;;;;;15.26;nan;102390.19;5031245;28;20518;-73
2021/06/04 04:32:15;;;;;;;8.38;6.68;;;;;;;15.37;nan;102386.66;5033846;28;20037;-73
2021/06/04 04:34:43;;;;;;;6.78;5.85;;;;;;;15.49;nan;102394.72;5018563;28;20044;-73
2021/06/04 04:37:09;;;;;;;8.88;6.57;;;;;;;15.56;nan;102401.63;5032561;28;20024;-73
2021/06/04 04:39:38;;;;;;;6.75;6.05;;;;;;;15.62;nan;102391.78;5016189;28;20527;-73
2021/06/04 04:42:07;;;;;;;7.18;5.30;;;;;;;15.69;nan;102395.13;5030832;28;20026;-73
2021/06/04 04:44:38;;;;;;;8.00;5.75;;;;;;;15.80;nan;102391.56;5029098;28;20037;-73
2021/06/04 04:47:07;;;;;;;7.00;5.47;;;;;;;15.91;nan;102382.56;5030608;28;20029;-73
2021/06/04 04:49:33;;;;;;;6.85;5.53;;;;;;;16.02;nan;102384.38;5031286;28;20039;-73
2021/06/04 04:51:58;;;;;;;9.05;6.20;;;;;;;16.14;nan;102383.47;5027273;28;20104;-73
2021/06/04 04:54:24;;;;;;;10.80;6.40;;;;;;;16.14;nan;102387.00;5030736;28;20029;-73
2021/06/04 04:56:50;;;;;;;13.02;6.00;;;;;;;16.10;nan;102385.03;5029697;28;20021;-73
2021/06/04 04:59:16;;;;;;;8.98;6.13;;;;;;;16.13;nan;102390.75;5026882;28;20098;-73
2021/06/04 05:01:42;;;;;;;9.02;5.85;;;;;;;16.20;nan;102393.31;5026112;28;20091;-73
2021/06/04 05:04:07;;;;;;;9.30;6.53;;;;;;;16.18;nan;102390.06;5020949;28;20500;-73
2021/06/04 05:06:35;;;;;;;6.72;5.95;;;;;;;16.21;nan;102398.50;5029653;28;20034;-73
2021/06/04 05:09:02;;;;;;;10.63;6.07;;;;;;;16.39;nan;102394.72;5036744;28;20569;-73
2021/06/04 05:11:28;;;;;;;10.23;5.82;;;;;;;16.49;nan;102394.84;5022064;28;20043;-73
2021/06/04 05:13:53;;;;;;;7.68;5.65;;;;;;;16.59;nan;102392.31;5032158;28;20085;-73
2021/06/04 05:16:19;;;;;;;8.57;5.28;;;;;;;16.42;nan;102396.91;5031507;28;20454;-74
2021/06/04 05:18:45;;;;;;;7.53;5.53;;;;;;;16.67;nan;102392.97;5012591;28;20039;-74
2021/06/04 05:21:14;;;;;;;7.03;5.30;;;;;;;16.79;nan;102388.28;5035648;28;20594;-74
2021/06/04 05:23:40;;;;;;;7.60;5.32;;;;;;;16.97;nan;102384.47;5019870;28;20033;-74
2021/06/04 05:26:06;;;;;;;8.00;5.28;;;;;;;16.94;nan;102391.22;5035222;28;20056;-74
2021/06/04 05:28:32;;;;;;;9.98;6.05;;;;;;;16.93;nan;102386.88;5030661;28;20032;-73
2021/06/04 05:31:02;;;;;;;7.57;5.43;;;;;;;17.09;nan;102382.47;5034302;28;20033;-73
2021/06/04 05:33:33;;;;;;;9.02;5.40;;;;;;;17.07;nan;102380.00;5033115;28;20024;-73
2021/06/04 05:36:04;;;;;;;6.63;4.93;;;;;;;17.34;nan;102371.91;5030219;28;20132;-74
2021/06/04 05:38:30;;;;;;;6.97;4.95;;;;;;;17.51;nan;102371.84;5032596;28;20161;-74
2021/06/04 05:40:55;;;;;;;7.72;5.03;;;;;;;17.58;nan;102375.16;5036561;28;20496;-73
2021/06/04 05:43:25;;;;;;;8.57;5.20;;;;;;;17.59;nan;102371.38;5016393;28;20021;-74
2021/06/04 05:45:52;;;;;;;8.75;5.65;;;;;;;17.76;nan;102377.53;5036251;28;20021;-74
2021/06/04 05:48:19;;;;;;;8.63;5.30;;;;;;;17.86;nan;102384.97;5019191;28;20017;-73
2021/06/04 05:50:49;;;;;;;13.23;5.30;;;;;;;17.95;nan;102385.28;5033887;28;20159;-73
2021/06/04 05:53:19;;;;;;;8.25;5.68;;;;;;;18.01;nan;102376.16;5033213;28;20028;-73
2021/06/04 05:55:45;;;;;;;9.70;5.82;;;;;;;18.09;nan;102375.66;5014304;28;20029;-73
2021/06/04 05:58:17;;;;;;;11.73;5.85;;;;;;;18.19;nan;102381.19;5015492;28;20163;-73
2021/06/04 06:00:45;;;;;;;11.35;5.50;;;;;;;18.27;nan;102377.16;5031915;28;20025;-73
2021/06/04 06:03:18;;;;;;;11.27;5.45;;;;;;;18.37;nan;102380.78;5029503;28;20029;-73
2021/06/04 06:05:44;;;;;;;10.25;5.70;;;;;;;18.51;nan;102383.03;5030421;28;20160;-73
2021/06/04 06:08:11;;;;;;;9.73;5.78;;;;;;;18.58;nan;102389.88;5015432;28;20599;-73
2021/06/04 06:10:36;;;;;;;7.68;5.03;;;;;;;18.64;nan;102383.41;5030243;28;20026;-73
2021/06/04 06:13:03;;;;;;;5.90;4.72;;;;;;;18.77;nan;102390.28;5013489;28;20659;-73
2021/06/04 06:15:31;;;;;;;7.85;5.57;;;;;;;18.94;nan;102388.19;5030690;28;20036;-73
2021/06/04 06:17:57;;;;;;;8.43;5.30;;;;;;;19.12;nan;102394.25;5028535;28;20051;-73
2021/06/04 06:20:27;;;;;;;7.95;5.32;;;;;;;19.23;nan;102391.31;5028455;28;22032;-72
2021/06/04 06:22:53;;;;;;;6.82;4.80;;;;;;;19.37;nan;102386.19;5028123;28;20028;-73
2021/06/04 06:25:26;;;;;;;10.23;5.50;;;;;;;19.56;nan;102383.81;5027587;28;20022;-73
2021/06/04 06:27:52;;;;;;;7.45;4.28;;;;;;;19.68;nan;102378.94;5029732;28;20028;-73
2021/06/04 06:30:21;;;;;;;12.07;4.93;;;;;;;19.76;nan;102381.16;5029453;28;20391;-73
2021/06/04 06:32:47;;;;;;;7.70;4.28;;;;;;;19.78;nan;102381.69;5020069;28;20028;-74
2021/06/04 06:35:13;;;;;;;6.65;3.90;;;;;;;19.82;nan;102379.25;5029784;28;20513;-73
2021/06/04 06:37:39;;;;;;;6.68;4.15;;;;;;;19.96;nan;102385.78;5033532;28;20111;-73
2021/06/04 06:40:08;;;;;;;6.20;4.40;;;;;;;20.10;nan;102386.84;5032552;28;20570;-73
2021/06/04 06:42:34;;;;;;;8.00;4.70;;;;;;;20.27;nan;102385.75;5031547;28;20060;-74
2021/06/04 06:45:00;;;;;;;7.85;4.40;;;;;;;20.45;nan;102387.94;5035176;28;20143;-74
2021/06/04 06:47:25;;;;;;;9.93;4.68;;;;;;;20.64;nan;102393.63;5030842;28;20033;-74
2021/06/04 06:49:51;;;;;;;8.32;4.15;;;;;;;20.81;nan;102384.06;5017176;28;20130;-74
2021/06/04 06:52:17;;;;;;;15.95;5.07;;;;;;;21.01;nan;102385.91;5030106;28;20082;-74
2021/06/04 06:54:43;;;;;;;12.20;5.47;;;;;;;21.15;nan;102390.75;5032648;28;20112;-74
2021/06/04 06:57:09;;;;;;;9.48;4.30;;;;;;;21.19;nan;102394.56;5019728;28;20115;-74
2021/06/04 06:59:35;;;;;;;10.57;4.65;;;;;;;21.18;nan;102391.00;5036345;28;20031;-74
2021/06/04 07:02:05;;;;;;;8.52;4.47;;;;;;;21.35;nan;102399.66;5018201;28;20398;-74
2021/06/04 07:04:31;;;;;;;8.35;4.43;;;;;;;21.48;nan;102398.25;5031120;28;20052;-73
2021/06/04 07:06:57;;;;;;;9.35;4.75;;;;;;;21.75;nan;102392.38;5030101;28;20591;-74
2021/06/04 07:09:24;;;;;;;7.03;4.38;;;;;;;21.95;nan;102403.13;5030419;28;21973;-74
2021/06/04 07:11:54;;;;;;;8.85;4.72;;;;;;;22.25;nan;102390.34;5035064;28;20025;-74
2021/06/04 07:14:33;;;;;;;9.93;4.80;;;;;;;22.34;nan;102394.09;5019338;28;20103;-73
2021/06/04 07:17:00;;;;;;;9.48;4.25;;;;;;;22.32;nan;102390.84;5030032;28;20032;-73
2021/06/04 07:19:25;;;;;;;9.07;4.72;;;;;;;22.31;nan;102391.94;5036762;28;20139;-74
2021/06/04 07:21:53;;;;;;;7.45;4.22;;;;;;;22.24;nan;102384.06;5034442;28;20109;-74
2021/06/04 07:24:19;;;;;;;9.70;4.38;;;;;;;22.47;nan;102387.16;5017261;28;20128;-73
2021/06/04 07:26:52;;;;;;;6.43;4.30;;;;;;;22.69;nan;102389.38;5018781;28;20017;-73
2021/06/04 07:29:20;;;;;;;7.28;4.80;;;;;;;22.70;nan;102386.34;5027528;28;20048;-74
2021/06/04 07:31:46;;;;;;;11.43;4.55;;;;;;;22.81;nan;102376.13;5033591;28;20040;-74
2021/06/04 07:34:13;;;;;;;10.93;4.40;;;;;;;22.85;nan;102385.38;5029613;28;20021;-75
2021/06/04 07:36:42;;;;;;;12.52;4.75;;;;;;;23.18;nan;102381.69;5019651;28;20036;-74
2021/06/04 07:39:12;;;;;;;12.05;4.93;;;;;;;22.96;nan;102389.63;5022873;28;20036;-74
2021/06/04 07:41:37;;;;;;;5.60;4.38;;;;;;;23.21;nan;102381.09;5029338;28;20032;-74
2021/06/04 07:44:05;;;;;;;11.95;4.78;;;;;;;23.29;nan;102381.53;5019127;28;20028;-74
2021/06/04 07:46:30;;;;;;;9.05;4.43;;;;;;;23.08;nan;102387.28;5030810;28;20028;-75
2021/06/04 07:48:56;;;;;;;8.13;4.95;;;;;;;23.26;nan;102374.75;5031434;28;20583;-74
2021/06/04 07:51:29;;;;;;;7.85;5.03;;;;;;;23.20;nan;102374.00;5025341;28;20074;-74
2021/06/04 07:53:55;;;;;;;5.90;4.60;;;;;;;23.09;nan;102383.44;5030048;28;20070;-74
2021/06/04 07:56:21;;;;;;;7.07;4.40;;;;;;;22.98;nan;102381.97;5016477;28;20029;-74
2021/06/04 07:58:48;;;;;;;6.15;4.03;;;;;;;23.02;nan;102383.00;5013653;28;20030;-73
2021/06/04 08:01:16;;;;;;;7.07;4.72;;;;;;;22.85;nan;102388.13;5031245;28;20033;-74
2021/06/04 08:03:44;;;;;;;9.07;4.70;;;;;;;22.14;nan;102383.34;5018705;28;20121;-73
2021/06/04 08:06:11;;;;;;;14.63;5.22;;;;;;;22.40;nan;102384.72;5021146;28;20035;-73
2021/06/04 08:08:37;;;;;;;26.73;6.68;;;;;;;22.52;nan;102396.09;5030456;28;20426;-74
2021/06/04 08:11:14;;;;;;;8.93;5.25;;;;;;;21.70;nan;102386.91;5031795;28;20035;-75
2021/06/04 08:13:39;;;;;;;16.73;6.15;;;;;;;22.44;nan;102384.97;5017413;28;20059;-73
2021/06/04 08:16:10;;;;;;;21.70;6.15;;;;;;;22.65;nan;102389.13;5029729;28;20029;-74
2021/06/04 08:18:36;;;;;;;10.35;5.28;;;;;;;22.55;nan;102392.78;5031619;28;20042;-75
2021/06/04 08:21:07;;;;;;;22.88;6.18;;;;;;;22.86;nan;102392.47;5018977;28;20032;-74
2021/06/04 08:23:36;;;;;;;24.90;6.13;;;;;;;23.01;nan;102396.97;5029099;28;20034;-74
2021/06/04 08:26:04;;;;;;;14.25;5.95;;;;;;;23.02;nan;102393.94;5019251;28;20108;-74
2021/06/04 08:28:30;;;;;;;16.63;5.45;;;;;;;23.19;nan;102394.25;5026811;28;20029;-75
2021/06/04 08:30:57;;;;;;;11.50;4.72;;;;;;;23.44;nan;102384.06;5017120;28;20039;-75
2021/06/04 08:33:26;;;;;;;6.70;4.53;;;;;;;23.58;nan;102385.00;5033375;28;21990;-74
2021/06/04 08:35:52;;;;;;;7.38;4.38;;;;;;;23.78;nan;102390.16;5030491;28;20592;-74
2021/06/04 08:38:19;;;;;;;6.55;4.65;;;;;;;23.85;nan;102380.75;5032900;28;20029;-74
2021/06/04 08:40:44;;;;;;;8.10;4.28;;;;;;;23.84;nan;102382.66;5031196;28;20029;-75
2021/06/04 08:43:16;;;;;;;9.98;4.90;;;;;;;23.75;nan;102377.06;5029326;28;20866;-74
2021/06/04 08:46:31;;;;;;;6.72;4.20;;;;;;;23.68;nan;102384.00;5013094;28;20029;-74
2021/06/04 08:49:39;;;;;;;6.77;4.77;;;;;;;23.42;nan;102375.34;4992316;28;20373;-75
2021/06/04 08:52:18;;;;;;;10.57;4.57;;;;;;;23.21;nan;102375.63;5031656;28;20299;-74
2021/06/04 08:55:02;;;;;;;8.88;4.53;;;;;;;22.94;nan;102377.34;5013444;28;20029;-74
2021/06/04 08:57:48;;;;;;;10.10;4.40;;;;;;;22.75;nan;102374.53;5027027;28;20032;-73
2021/06/04 09:00:27;;;;;;;6.50;4.72;;;;;;;22.72;nan;102372.38;5029311;28;20063;-74
2021/06/04 09:03:35;;;;;;;9.95;4.28;;;;;;;22.64;nan;102375.78;5009229;28;20521;-75
2021/06/04 09:06:10;;;;;;;7.72;4.63;;;;;;;22.54;nan;102366.56;4986943;28;20683;-74
2021/06/04 09:08:38;;;;;;;6.28;4.75;;;;;;;22.46;nan;102364.47;5031884;28;20112;-73
2021/06/04 09:11:37;;;;;;;7.07;4.65;;;;;;;22.41;nan;102361.78;5014160;28;20116;-76
2021/06/04 09:14:05;;;;;;;5.40;4.18;;;;;;;22.43;nan;102359.56;5001026;28;20033;-74
2021/06/04 09:17:00;;;;;;;8.88;4.97;;;;;;;22.43;nan;102365.03;5031332;28;20037;-75
2021/06/04 09:19:31;;;;;;;5.95;4.13;;;;;;;22.48;nan;102373.19;5007391;28;20030;-74
2021/06/04 09:21:57;;;;;;;11.07;4.38;;;;;;;22.58;nan;102370.34;5033068;28;20035;-74
2021/06/04 09:24:34;;;;;;;9.20;3.95;;;;;;;22.63;nan;102363.22;5026963;28;20021;-74
2021/06/04 09:27:00;;;;;;;9.77;4.88;;;;;;;22.75;nan;102363.59;5030809;28;20056;-74
2021/06/04 09:29:28;;;;;;;10.73;4.47;;;;;;;22.71;nan;102357.09;5036428;28;20696;-74
2021/06/04 09:31:58;;;;;;;48.10;9.45;;;;;;;22.81;nan;102359.72;5022763;28;20075;-74
2021/06/04 09:34:33;;;;;;;9.93;5.00;;;;;;;23.07;nan;102352.84;5033682;28;20021;-75
2021/06/04 09:37:13;;;;;;;6.57;3.85;;;;;;;23.31;nan;102350.06;5020717;28;20104;-74
2021/06/04 09:39:51;;;;;;;4.93;4.03;;;;;;;23.57;nan;102353.28;5034714;28;20033;-73
2021/06/04 09:42:31;;;;;;;7.13;3.75;;;;;;;23.87;nan;102353.88;5034892;28;20407;-74
2021/06/04 09:44:57;;;;;;;11.52;5.00;;;;;;;24.04;nan;102351.41;5034809;28;20027;-74
2021/06/04 09:47:28;;;;;;;14.57;5.18;;;;;;;24.08;nan;102349.72;5033129;28;20030;-74
2021/06/04 09:49:54;;;;;;;10.70;4.50;;;;;;;24.16;nan;102346.28;5021964;28;20587;-74
2021/06/04 09:52:30;;;;;;;6.57;4.20;;;;;;;24.23;nan;102346.69;5030900;28;20036;-74
2021/06/04 09:55:01;;;;;;;4.47;4.00;;;;;;;24.34;nan;102350.91;5035998;28;20056;-75
2021/06/04 09:57:27;;;;;;;10.60;4.30;;;;;;;24.52;nan;102345.63;5041031;28;20021;-74
2021/06/04 09:59:52;;;;;;;6.00;4.00;;;;;;;24.74;nan;102353.16;5040944;28;20039;-75
2021/06/04 10:02:36;;;;;;;4.78;3.85;;;;;;;24.79;nan;102351.13;5037082;28;20049;-74
2021/06/04 10:05:30;;;;;;;9.13;4.78;;;;;;;24.49;nan;102354.47;5035686;28;20037;-75
2021/06/04 10:08:13;;;;;;;6.63;3.70;;;;;;;24.31;nan;102356.16;5032219;28;20032;-74
2021/06/04 10:10:39;;;;;;;13.15;5.15;;;;;;;24.29;nan;102361.97;5035223;28;20033;-74
2021/06/04 10:13:29;;;;;;;7.97;4.82;;;;;;;24.32;nan;102355.06;5023854;28;20026;-74
2021/06/04 10:15:55;;;;;;;8.35;4.63;;;;;;;24.14;nan;102364.13;5026252;28;20643;-74
2021/06/04 10:18:35;;;;;;;6.45;4.47;;;;;;;24.04;nan;102365.09;5023778;28;20055;-75
2021/06/04 10:21:13;;;;;;;5.35;4.00;;;;;;;24.25;nan;102365.56;5033962;28;20039;-74
2021/06/04 10:23:43;;;;;;;11.70;5.32;;;;;;;24.19;nan;102367.56;5030132;28;20172;-74
2021/06/04 10:26:27;;;;;;;10.13;4.63;;;;;;;24.26;nan;102362.53;5033303;28;20060;-74
2021/06/04 10:28:58;;;;;;;20.40;5.15;;;;;;;24.44;nan;102362.78;5033141;28;20036;-75
2021/06/04 10:31:37;;;;;;;23.65;6.15;;;;;;;24.65;nan;102369.50;5033918;28;20042;-73
2021/06/04 10:34:25;;;;;;;15.55;5.90;;;;;;;24.63;nan;102366.25;5033261;28;20025;-75
2021/06/04 10:36:56;;;;;;;8.40;4.18;;;;;;;25.03;nan;102359.16;5036006;28;20028;-75
2021/06/04 10:39:35;;;;;;;11.82;6.15;;;;;;;25.06;nan;102357.72;5038428;28;20038;-74
2021/06/04 10:42:27;;;;;;;13.95;5.15;;;;;;;25.51;nan;102353.97;5036399;28;20059;-72
2021/06/04 10:44:59;;;;;;;21.45;6.85;;;;;;;25.24;nan;102363.06;5035740;28;20655;-74
2021/06/04 10:47:35;;;;;;;9.25;4.82;;;;;;;25.36;nan;102361.72;5029736;28;20111;-75
2021/06/04 10:50:23;;;;;;;22.63;6.30;;;;;;;25.43;nan;102367.59;5016846;28;20033;-76
2021/06/04 10:53:00;;;;;;;7.90;4.57;;;;;;;25.71;nan;102365.59;5021250;28;20029;-75
2021/06/04 10:55:47;;;;;;;8.32;4.30;;;;;;;25.86;nan;102363.28;5036904;28;20057;-74
2021/06/04 10:58:43;;;;;;;11.07;5.07;;;;;;;25.72;nan;102362.53;5032581;28;20125;-74
2021/06/04 11:01:14;;;;;;;5.55;4.20;;;;;;;25.82;nan;102365.03;5028799;28;20030;-74
2021/06/04 11:04:10;;;;;;;6.78;4.68;;;;;;;26.00;nan;102359.66;5030767;28;20033;-74
2021/06/04 11:06:41;;;;;;;6.93;4.10;;;;;;;26.09;nan;102361.34;5034794;28;20036;-74
2021/06/04 11:09:13;;;;;;;17.20;6.65;;;;;;;26.06;nan;102356.47;5030795;28;20021;-75
2021/06/04 11:11:50;;;;;;;8.60;4.43;;;;;;;25.82;nan;102358.72;5033638;28;20029;-73
2021/06/04 11:14:51;;;;;;;7.57;4.78;;;;;;;25.81;nan;102346.94;5030060;28;20033;-73
2021/06/04 11:17:29;;;;;;;20.95;5.72;;;;;;;25.69;nan;102343.97;5006199;28;20047;-72
2021/06/04 11:20:16;;;;;;;27.50;5.90;;;;;;;25.53;nan;102346.22;5026597;28;20033;-73
2021/06/04 11:23:16;;;;;;;7.57;4.35;;;;;;;26.33;nan;102347.22;5030500;28;20032;-73
2021/06/04 11:25:53;;;;;;;6.18;3.60;;;;;;;26.86;nan;102349.06;4966318;28;20045;-73
2021/06/04 11:28:26;;;;;;;17.15;4.22;;;;;;;26.73;nan;102345.31;5020857;28;20032;-73
2021/06/04 11:30:55;;;;;;;5.68;3.63;;;;;;;27.05;nan;102349.63;5033259;28;20116;-73
2021/06/04 11:33:25;;;;;;;6.43;3.47;;;;;;;27.12;nan;102351.09;5010711;28;20034;-72
2021/06/04 11:36:04;;;;;;;5.85;3.92;;;;;;;27.40;nan;102335.88;5010583;28;20146;-73
2021/06/04 11:38:37;;;;;;;7.28;4.00;;;;;;;27.54;nan;102342.03;5015280;28;20120;-72
2021/06/04 11:41:18;;;;;;;6.30;3.58;;;;;;;27.57;nan;102346.09;5027759;28;20029;-73
2021/06/04 11:43:49;;;;;;;7.57;3.85;;;;;;;27.85;nan;102341.88;5025158;28;20403;-73
2021/06/04 11:46:30;;;;;;;7.57;3.72;;;;;;;27.80;nan;102335.72;5010369;28;20584;-73
2021/06/04 11:48:58;;;;;;;6.70;3.60;;;;;;;28.02;nan;102331.97;5024331;28;20546;-73
2021/06/04 11:51:30;;;;;;;6.63;3.35;;;;;;;27.83;nan;102330.38;5013171;28;20116;-73
2021/06/04 11:54:14;;;;;;;6.93;3.30;;;;;;;27.97;nan;102322.72;5031240;28;20763;-73
2021/06/04 11:56:42;;;;;;;5.15;3.20;;;;;;;28.07;nan;102329.03;5032041;28;20399;-74
2021/06/04 11:59:13;;;;;;;7.28;3.78;;;;;;;27.27;nan;102318.41;5030558;28;20036;-72
2021/06/04 12:01:42;;;;;;;11.90;3.88;;;;;;;28.27;nan;102318.13;5019896;28;20838;-72